sensor_id;sensor_type;location;lat;lon;timestamp;temperature;humidity
34147;DHT22;20423;49.448;9.056;2023-03-31T00:02:18;7.90;99.90
34147;DHT22;20423;49.448;9.056;2023-03-31T00:04:47;7.90;99.90
34147;DHT22;20423;49.448;9.056;2023-03-31T00:07:24;7.80;99.90
34147;DHT22;20423;49.448;9.056;2023-03-31T00:09:50;7.70;99.90
34147;DHT22;20423;49.448;9.056;2023-03-31T00:12:20;7.70;99.90
34147;DHT22;20423;49.448;9.056;2023-03-31T00:14:46;7.80;99.90
34147;DHT22;20423;49.448;9.056;2023-03-31T00:17:12;7.80;99.90
34147;DHT22;20423;49.448;9.056;2023-03-31T00:19:39;7.80;99.90
34147;DHT22;20423;49.448;9.056;2023-03-31T00:22:07;7.90;99.90
34147;DHT22;20423;49.448;9.056;2023-03-31T00:24:33;7.90;99.90
34147;DHT22;20423;49.448;9.056;2023-03-31T00:27:03;7.90;99.90
34147;DHT22;20423;49.448;9.056;2023-03-31T00:29:29;7.90;99.90
34147;DHT22;20423;49.448;9.056;2023-03-31T00:31:55;7.90;99.90
34147;DHT22;20423;49.448;9.056;2023-03-31T00:34:24;7.90;99.90
34147;DHT22;20423;49.448;9.056;2023-03-31T00:37:03;7.90;99.90
34147;DHT22;20423;49.448;9.056;2023-03-31T00:39:30;7.90;99.90
34147;DHT22;20423;49.448;9.056;2023-03-31T00:42:03;7.90;99.90
34147;DHT22;20423;49.448;9.056;2023-03-31T00:44:30;7.90;99.90
34147;DHT22;20423;49.448;9.056;2023-03-31T00:47:09;7.90;99.90
34147;DHT22;20423;49.448;9.056;2023-03-31T00:49:48;8.00;99.90
34147;DHT22;20423;49.448;9.056;2023-03-31T00:52:29;8.10;99.90
34147;DHT22;20423;49.448;9.056;2023-03-31T00:55:08;8.20;99.90
34147;DHT22;20423;49.448;9.056;2023-03-31T00:57:37;8.20;99.90
34147;DHT22;20423;49.448;9.056;2023-03-31T01:00:07;8.10;99.90
34147;DHT22;20423;49.448;9.056;2023-03-31T01:02:45;8.10;99.90
34147;DHT22;20423;49.448;9.056;2023-03-31T01:08:04;8.10;99.90
34147;DHT22;20423;49.448;9.056;2023-03-31T01:10:34;8.00;99.90
34147;DHT22;20423;49.448;9.056;2023-03-31T01:13:08;8.00;99.90
34147;DHT22;20423;49.448;9.056;2023-03-31T01:15:35;8.00;99.90
34147;DHT22;20423;49.448;9.056;2023-03-31T01:18:01;8.00;99.90
34147;DHT22;20423;49.448;9.056;2023-03-31T01:42:15;8.10;99.90
34147;DHT22;20423;49.448;9.056;2023-03-31T01:44:50;8.20;99.90
34147;DHT22;20423;49.448;9.056;2023-03-31T01:47:30;8.20;99.90
34147;DHT22;20423;49.448;9.056;2023-03-31T01:50:07;8.20;99.90
34147;DHT22;20423;49.448;9.056;2023-03-31T01:55:38;8.20;99.90
34147;DHT22;20423;49.448;9.056;2023-03-31T01:58:19;8.30;99.90
34147;DHT22;20423;49.448;9.056;2023-03-31T02:00:58;8.30;99.90
34147;DHT22;20423;49.448;9.056;2023-03-31T02:03:32;8.20;99.90
34147;DHT22;20423;49.448;9.056;2023-03-31T02:06:11;8.20;99.90
34147;DHT22;20423;49.448;9.056;2023-03-31T02:08:45;8.10;99.90
34147;DHT22;20423;49.448;9.056;2023-03-31T02:11:13;8.00;99.90
34147;DHT22;20423;49.448;9.056;2023-03-31T02:13:40;7.90;99.90
34147;DHT22;20423;49.448;9.056;2023-03-31T02:16:12;7.90;99.90
34147;DHT22;20423;49.448;9.056;2023-03-31T02:18:42;7.90;99.90
34147;DHT22;20423;49.448;9.056;2023-03-31T02:21:10;7.90;99.90
34147;DHT22;20423;49.448;9.056;2023-03-31T02:23:39;7.80;99.90
34147;DHT22;20423;49.448;9.056;2023-03-31T02:26:13;7.80;99.90
34147;DHT22;20423;49.448;9.056;2023-03-31T02:28:40;7.90;99.90
34147;DHT22;20423;49.448;9.056;2023-03-31T02:31:24;7.90;99.90
34147;DHT22;20423;49.448;9.056;2023-03-31T02:33:51;7.90;99.90
34147;DHT22;20423;49.448;9.056;2023-03-31T02:36:18;7.80;99.90
34147;DHT22;20423;49.448;9.056;2023-03-31T02:38:51;7.80;99.90
34147;DHT22;20423;49.448;9.056;2023-03-31T02:41:19;7.80;99.90
34147;DHT22;20423;49.448;9.056;2023-03-31T02:43:45;7.80;99.90
34147;DHT22;20423;49.448;9.056;2023-03-31T02:46:10;7.70;99.90
34147;DHT22;20423;49.448;9.056;2023-03-31T02:48:42;7.70;99.90
34147;DHT22;20423;49.448;9.056;2023-03-31T03:13:46;7.60;99.90
34147;DHT22;20423;49.448;9.056;2023-03-31T03:16:28;7.50;99.90
34147;DHT22;20423;49.448;9.056;2023-03-31T03:19:02;7.50;99.90
34147;DHT22;20423;49.448;9.056;2023-03-31T03:21:29;7.50;99.90
34147;DHT22;20423;49.448;9.056;2023-03-31T03:23:55;7.50;99.90
34147;DHT22;20423;49.448;9.056;2023-03-31T03:26:22;7.50;99.90
34147;DHT22;20423;49.448;9.056;2023-03-31T03:28:52;7.40;99.90
34147;DHT22;20423;49.448;9.056;2023-03-31T03:31:33;7.40;99.90
34147;DHT22;20423;49.448;9.056;2023-03-31T03:33:59;7.40;99.90
34147;DHT22;20423;49.448;9.056;2023-03-31T03:36:25;7.50;99.90
34147;DHT22;20423;49.448;9.056;2023-03-31T03:38:51;7.40;99.90
34147;DHT22;20423;49.448;9.056;2023-03-31T03:41:16;7.40;99.90
34147;DHT22;20423;49.448;9.056;2023-03-31T03:43:42;7.40;99.90
34147;DHT22;20423;49.448;9.056;2023-03-31T03:46:08;7.40;99.90
34147;DHT22;20423;49.448;9.056;2023-03-31T03:48:33;7.50;99.90
34147;DHT22;20423;49.448;9.056;2023-03-31T03:51:00;7.50;99.90
34147;DHT22;20423;49.448;9.056;2023-03-31T03:53:26;7.40;99.90
34147;DHT22;20423;49.448;9.056;2023-03-31T03:55:51;7.40;99.90
34147;DHT22;20423;49.448;9.056;2023-03-31T03:58:17;7.40;99.90
34147;DHT22;20423;49.448;9.056;2023-03-31T04:00:45;7.30;99.90
34147;DHT22;20423;49.448;9.056;2023-03-31T04:03:12;7.30;99.90
34147;DHT22;20423;49.448;9.056;2023-03-31T04:06:12;7.30;99.90
34147;DHT22;20423;49.448;9.056;2023-03-31T04:08:38;7.30;99.90
34147;DHT22;20423;49.448;9.056;2023-03-31T04:11:14;7.30;99.90
34147;DHT22;20423;49.448;9.056;2023-03-31T04:13:44;7.30;99.90
34147;DHT22;20423;49.448;9.056;2023-03-31T04:16:10;7.20;99.90
34147;DHT22;20423;49.448;9.056;2023-03-31T04:18:36;7.20;99.90
34147;DHT22;20423;49.448;9.056;2023-03-31T04:21:08;7.20;99.90
34147;DHT22;20423;49.448;9.056;2023-03-31T04:23:38;7.20;99.90
34147;DHT22;20423;49.448;9.056;2023-03-31T04:26:35;7.20;99.90
34147;DHT22;20423;49.448;9.056;2023-03-31T04:29:11;7.20;99.90
34147;DHT22;20423;49.448;9.056;2023-03-31T04:31:38;7.20;99.90
34147;DHT22;20423;49.448;9.056;2023-03-31T04:34:12;7.30;99.90
34147;DHT22;20423;49.448;9.056;2023-03-31T04:36:43;7.30;99.90
34147;DHT22;20423;49.448;9.056;2023-03-31T04:39:15;7.30;99.90
34147;DHT22;20423;49.448;9.056;2023-03-31T04:41:42;7.30;99.90
34147;DHT22;20423;49.448;9.056;2023-03-31T04:44:07;7.40;99.90
34147;DHT22;20423;49.448;9.056;2023-03-31T04:46:34;7.40;99.90
34147;DHT22;20423;49.448;9.056;2023-03-31T04:49:00;7.40;99.90
34147;DHT22;20423;49.448;9.056;2023-03-31T04:51:49;7.30;99.90
34147;DHT22;20423;49.448;9.056;2023-03-31T04:54:15;7.40;99.90
34147;DHT22;20423;49.448;9.056;2023-03-31T04:56:41;7.40;99.90
34147;DHT22;20423;49.448;9.056;2023-03-31T04:59:07;7.40;99.90
34147;DHT22;20423;49.448;9.056;2023-03-31T05:01:33;7.40;99.90
34147;DHT22;20423;49.448;9.056;2023-03-31T05:04:01;7.40;99.90
34147;DHT22;20423;49.448;9.056;2023-03-31T05:06:27;7.40;99.90
34147;DHT22;20423;49.448;9.056;2023-03-31T05:08:53;7.50;99.90
34147;DHT22;20423;49.448;9.056;2023-03-31T05:11:18;7.50;99.90
34147;DHT22;20423;49.448;9.056;2023-03-31T05:13:44;7.40;99.90
34147;DHT22;20423;49.448;9.056;2023-03-31T05:16:25;7.40;99.90
34147;DHT22;20423;49.448;9.056;2023-03-31T05:18:51;7.40;99.90
34147;DHT22;20423;49.448;9.056;2023-03-31T05:21:18;7.40;99.90
34147;DHT22;20423;49.448;9.056;2023-03-31T05:23:45;7.40;99.90
34147;DHT22;20423;49.448;9.056;2023-03-31T05:26:11;7.40;99.90
34147;DHT22;20423;49.448;9.056;2023-03-31T05:28:38;7.30;99.90
34147;DHT22;20423;49.448;9.056;2023-03-31T05:31:05;7.30;99.90
34147;DHT22;20423;49.448;9.056;2023-03-31T05:33:32;7.30;99.90
34147;DHT22;20423;49.448;9.056;2023-03-31T05:36:09;7.30;99.90
34147;DHT22;20423;49.448;9.056;2023-03-31T05:38:39;7.20;99.90
34147;DHT22;20423;49.448;9.056;2023-03-31T05:41:05;7.20;99.90
34147;DHT22;20423;49.448;9.056;2023-03-31T05:43:32;7.20;99.90
34147;DHT22;20423;49.448;9.056;2023-03-31T05:45:58;7.20;99.90
34147;DHT22;20423;49.448;9.056;2023-03-31T05:48:26;7.20;99.90
34147;DHT22;20423;49.448;9.056;2023-03-31T05:50:56;7.20;99.90
34147;DHT22;20423;49.448;9.056;2023-03-31T05:53:23;7.20;99.90
34147;DHT22;20423;49.448;9.056;2023-03-31T05:55:48;7.20;99.90
34147;DHT22;20423;49.448;9.056;2023-03-31T05:58:23;7.20;99.90
34147;DHT22;20423;49.448;9.056;2023-03-31T06:00:49;7.20;99.90
34147;DHT22;20423;49.448;9.056;2023-03-31T06:03:18;7.20;99.90
34147;DHT22;20423;49.448;9.056;2023-03-31T06:05:47;7.20;99.90
34147;DHT22;20423;49.448;9.056;2023-03-31T06:08:13;7.20;99.90
34147;DHT22;20423;49.448;9.056;2023-03-31T06:10:39;7.20;99.90
34147;DHT22;20423;49.448;9.056;2023-03-31T06:13:10;7.20;99.90
34147;DHT22;20423;49.448;9.056;2023-03-31T06:15:35;7.20;99.90
34147;DHT22;20423;49.448;9.056;2023-03-31T06:18:01;7.20;99.90
34147;DHT22;20423;49.448;9.056;2023-03-31T06:20:27;7.10;99.90
34147;DHT22;20423;49.448;9.056;2023-03-31T06:22:53;7.20;99.90
34147;DHT22;20423;49.448;9.056;2023-03-31T06:25:19;7.10;99.90
34147;DHT22;20423;49.448;9.056;2023-03-31T06:27:46;7.10;99.90
34147;DHT22;20423;49.448;9.056;2023-03-31T06:30:12;7.10;99.90
34147;DHT22;20423;49.448;9.056;2023-03-31T06:32:38;7.10;99.90
34147;DHT22;20423;49.448;9.056;2023-03-31T06:35:04;7.20;99.90
34147;DHT22;20423;49.448;9.056;2023-03-31T06:37:30;7.20;99.90
34147;DHT22;20423;49.448;9.056;2023-03-31T06:40:03;7.20;99.90
34147;DHT22;20423;49.448;9.056;2023-03-31T06:42:29;7.10;99.90
34147;DHT22;20423;49.448;9.056;2023-03-31T06:44:55;7.10;99.90
34147;DHT22;20423;49.448;9.056;2023-03-31T06:47:21;7.20;99.90
34147;DHT22;20423;49.448;9.056;2023-03-31T06:49:47;7.20;99.90
34147;DHT22;20423;49.448;9.056;2023-03-31T06:52:12;7.30;99.90
34147;DHT22;20423;49.448;9.056;2023-03-31T06:54:39;7.30;99.90
34147;DHT22;20423;49.448;9.056;2023-03-31T06:57:04;7.30;99.90
34147;DHT22;20423;49.448;9.056;2023-03-31T06:59:30;7.20;99.90
34147;DHT22;20423;49.448;9.056;2023-03-31T07:01:56;7.20;99.90
34147;DHT22;20423;49.448;9.056;2023-03-31T07:04:22;7.20;99.90
34147;DHT22;20423;49.448;9.056;2023-03-31T07:06:47;7.20;99.90
34147;DHT22;20423;49.448;9.056;2023-03-31T07:09:13;7.20;99.90
34147;DHT22;20423;49.448;9.056;2023-03-31T07:11:39;7.30;99.90
34147;DHT22;20423;49.448;9.056;2023-03-31T07:14:05;7.40;99.90
34147;DHT22;20423;49.448;9.056;2023-03-31T07:16:31;7.40;99.90
34147;DHT22;20423;49.448;9.056;2023-03-31T07:18:57;7.50;99.90
34147;DHT22;20423;49.448;9.056;2023-03-31T07:21:24;7.50;99.90
34147;DHT22;20423;49.448;9.056;2023-03-31T07:23:51;7.50;99.90
34147;DHT22;20423;49.448;9.056;2023-03-31T07:26:17;7.50;99.90
34147;DHT22;20423;49.448;9.056;2023-03-31T07:28:42;7.50;99.90
34147;DHT22;20423;49.448;9.056;2023-03-31T07:31:14;7.50;99.90
34147;DHT22;20423;49.448;9.056;2023-03-31T07:33:40;7.60;99.90
34147;DHT22;20423;49.448;9.056;2023-03-31T07:36:07;7.60;99.90
34147;DHT22;20423;49.448;9.056;2023-03-31T07:38:33;7.60;99.90
34147;DHT22;20423;49.448;9.056;2023-03-31T07:40:59;7.70;99.90
34147;DHT22;20423;49.448;9.056;2023-03-31T07:43:25;7.70;99.90
34147;DHT22;20423;49.448;9.056;2023-03-31T07:45:51;7.80;99.90
34147;DHT22;20423;49.448;9.056;2023-03-31T07:48:17;7.80;99.90
34147;DHT22;20423;49.448;9.056;2023-03-31T07:50:42;7.80;99.90
34147;DHT22;20423;49.448;9.056;2023-03-31T07:53:18;7.90;99.90
34147;DHT22;20423;49.448;9.056;2023-03-31T07:55:43;7.90;99.90
34147;DHT22;20423;49.448;9.056;2023-03-31T07:58:09;7.90;99.90
34147;DHT22;20423;49.448;9.056;2023-03-31T08:00:36;7.90;99.90
34147;DHT22;20423;49.448;9.056;2023-03-31T08:03:02;7.90;99.90
34147;DHT22;20423;49.448;9.056;2023-03-31T08:05:28;8.00;99.90
34147;DHT22;20423;49.448;9.056;2023-03-31T08:07:54;8.00;99.90
34147;DHT22;20423;49.448;9.056;2023-03-31T08:10:23;8.10;99.90
34147;DHT22;20423;49.448;9.056;2023-03-31T08:12:49;8.20;99.90
34147;DHT22;20423;49.448;9.056;2023-03-31T08:15:16;8.30;99.90
34147;DHT22;20423;49.448;9.056;2023-03-31T08:17:51;8.40;99.90
34147;DHT22;20423;49.448;9.056;2023-03-31T08:20:17;8.40;99.90
34147;DHT22;20423;49.448;9.056;2023-03-31T08:22:42;8.40;99.90
34147;DHT22;20423;49.448;9.056;2023-03-31T08:25:09;8.30;99.90
34147;DHT22;20423;49.448;9.056;2023-03-31T08:27:36;8.30;99.90
34147;DHT22;20423;49.448;9.056;2023-03-31T08:30:03;8.30;99.90
34147;DHT22;20423;49.448;9.056;2023-03-31T08:32:33;8.40;99.90
34147;DHT22;20423;49.448;9.056;2023-03-31T08:34:59;8.30;99.90
34147;DHT22;20423;49.448;9.056;2023-03-31T08:37:25;8.30;99.90
34147;DHT22;20423;49.448;9.056;2023-03-31T08:39:53;8.40;99.90
34147;DHT22;20423;49.448;9.056;2023-03-31T08:45:21;8.30;99.90
34147;DHT22;20423;49.448;9.056;2023-03-31T08:47:54;8.20;99.90
34147;DHT22;20423;49.448;9.056;2023-03-31T08:50:26;8.10;99.90
34147;DHT22;20423;49.448;9.056;2023-03-31T08:53:05;8.20;99.90
34147;DHT22;20423;49.448;9.056;2023-03-31T08:55:52;8.50;99.90
34147;DHT22;20423;49.448;9.056;2023-03-31T09:01:11;8.80;99.90
34147;DHT22;20423;49.448;9.056;2023-03-31T09:06:13;9.00;99.90
34147;DHT22;20423;49.448;9.056;2023-03-31T09:08:41;9.70;99.90
34147;DHT22;20423;49.448;9.056;2023-03-31T09:11:24;9.90;99.90
34147;DHT22;20423;49.448;9.056;2023-03-31T09:19:20;10.60;99.90
34147;DHT22;20423;49.448;9.056;2023-03-31T09:21:51;10.90;99.90
34147;DHT22;20423;49.448;9.056;2023-03-31T09:24:21;11.10;99.90
34147;DHT22;20423;49.448;9.056;2023-03-31T09:27:00;11.10;99.90
34147;DHT22;20423;49.448;9.056;2023-03-31T09:32:01;11.00;99.90
34147;DHT22;20423;49.448;9.056;2023-03-31T09:34:33;10.50;99.90
34147;DHT22;20423;49.448;9.056;2023-03-31T09:36:59;9.90;99.90
34147;DHT22;20423;49.448;9.056;2023-03-31T09:39:25;9.50;99.90
34147;DHT22;20423;49.448;9.056;2023-03-31T09:41:52;9.20;99.90
34147;DHT22;20423;49.448;9.056;2023-03-31T09:46:52;8.80;99.90
34147;DHT22;20423;49.448;9.056;2023-03-31T09:49:21;8.80;99.90
34147;DHT22;20423;49.448;9.056;2023-03-31T09:51:52;8.70;99.90
34147;DHT22;20423;49.448;9.056;2023-03-31T09:54:47;8.80;99.90
34147;DHT22;20423;49.448;9.056;2023-03-31T09:57:35;8.80;99.90
34147;DHT22;20423;49.448;9.056;2023-03-31T10:00:15;8.70;99.90
34147;DHT22;20423;49.448;9.056;2023-03-31T10:03:03;8.80;99.90
34147;DHT22;20423;49.448;9.056;2023-03-31T10:05:47;8.80;99.90
34147;DHT22;20423;49.448;9.056;2023-03-31T10:08:26;8.90;99.90
34147;DHT22;20423;49.448;9.056;2023-03-31T10:11:15;9.00;99.90
34147;DHT22;20423;49.448;9.056;2023-03-31T10:14:11;9.10;99.90
34147;DHT22;20423;49.448;9.056;2023-03-31T10:16:51;9.10;99.90
34147;DHT22;20423;49.448;9.056;2023-03-31T10:21:55;9.00;99.90
34147;DHT22;20423;49.448;9.056;2023-03-31T10:24:22;9.10;99.90
34147;DHT22;20423;49.448;9.056;2023-03-31T10:26:51;9.10;99.90
34147;DHT22;20423;49.448;9.056;2023-03-31T10:29:21;9.20;99.90
34147;DHT22;20423;49.448;9.056;2023-03-31T10:31:50;9.20;99.90
34147;DHT22;20423;49.448;9.056;2023-03-31T10:34:17;9.30;99.90
34147;DHT22;20423;49.448;9.056;2023-03-31T10:36:50;9.20;99.90
34147;DHT22;20423;49.448;9.056;2023-03-31T10:39:17;9.50;99.90
34147;DHT22;20423;49.448;9.056;2023-03-31T10:41:49;9.80;99.90
34147;DHT22;20423;49.448;9.056;2023-03-31T10:44:36;10.10;99.90
34147;DHT22;20423;49.448;9.056;2023-03-31T10:47:16;10.20;99.90
34147;DHT22;20423;49.448;9.056;2023-03-31T10:49:43;10.50;99.90
34147;DHT22;20423;49.448;9.056;2023-03-31T10:52:21;10.40;99.90
34147;DHT22;20423;49.448;9.056;2023-03-31T10:55:18;10.30;99.90
34147;DHT22;20423;49.448;9.056;2023-03-31T10:57:54;10.20;99.90
34147;DHT22;20423;49.448;9.056;2023-03-31T11:00:43;10.10;99.90
34147;DHT22;20423;49.448;9.056;2023-03-31T11:06:44;9.20;99.90
34147;DHT22;20423;49.448;9.056;2023-03-31T11:09:26;8.50;99.90
34147;DHT22;20423;49.448;9.056;2023-03-31T11:21:30;7.10;99.90
34147;DHT22;20423;49.448;9.056;2023-03-31T11:24:07;6.80;99.90
34147;DHT22;20423;49.448;9.056;2023-03-31T11:29:50;6.90;99.90
34147;DHT22;20423;49.448;9.056;2023-03-31T11:32:45;6.90;99.90
34147;DHT22;20423;49.448;9.056;2023-03-31T11:43:35;7.90;99.90
34147;DHT22;20423;49.448;9.056;2023-03-31T11:46:10;8.50;99.90
34147;DHT22;20423;49.448;9.056;2023-03-31T11:48:50;9.40;99.90
34147;DHT22;20423;49.448;9.056;2023-03-31T11:54:06;10.90;99.90
34147;DHT22;20423;49.448;9.056;2023-03-31T11:56:38;10.70;99.90
34147;DHT22;20423;49.448;9.056;2023-03-31T11:59:06;10.40;99.90
34147;DHT22;20423;49.448;9.056;2023-03-31T12:01:54;10.10;99.90
34147;DHT22;20423;49.448;9.056;2023-03-31T12:04:38;10.20;99.90
34147;DHT22;20423;49.448;9.056;2023-03-31T12:12:54;10.40;99.90
34147;DHT22;20423;49.448;9.056;2023-03-31T12:15:33;10.50;99.90
34147;DHT22;20423;49.448;9.056;2023-03-31T12:18:11;10.80;99.90
34147;DHT22;20423;49.448;9.056;2023-03-31T12:20:59;10.90;99.90
34147;DHT22;20423;49.448;9.056;2023-03-31T12:23:52;10.80;99.90
34147;DHT22;20423;49.448;9.056;2023-03-31T12:29:20;10.30;99.90
34147;DHT22;20423;49.448;9.056;2023-03-31T12:31:48;10.20;99.90
34147;DHT22;20423;49.448;9.056;2023-03-31T12:34:17;10.10;99.90
34147;DHT22;20423;49.448;9.056;2023-03-31T12:39:35;9.80;99.90
34147;DHT22;20423;49.448;9.056;2023-03-31T12:42:51;9.90;99.90
34147;DHT22;20423;49.448;9.056;2023-03-31T12:45:27;10.00;99.90
34147;DHT22;20423;49.448;9.056;2023-03-31T12:59:39;9.00;99.90
34147;DHT22;20423;49.448;9.056;2023-03-31T13:04:36;8.90;99.90
34147;DHT22;20423;49.448;9.056;2023-03-31T13:07:04;9.00;99.90
34147;DHT22;20423;49.448;9.056;2023-03-31T13:09:44;9.10;99.90
34147;DHT22;20423;49.448;9.056;2023-03-31T13:12:16;9.10;99.90
34147;DHT22;20423;49.448;9.056;2023-03-31T13:14:46;9.30;99.90
34147;DHT22;20423;49.448;9.056;2023-03-31T13:19:50;9.20;99.90
34147;DHT22;20423;49.448;9.056;2023-03-31T13:22:36;9.30;99.90
34147;DHT22;20423;49.448;9.056;2023-03-31T13:27:58;9.40;99.90
34147;DHT22;20423;49.448;9.056;2023-03-31T13:33:04;9.90;99.90
34147;DHT22;20423;49.448;9.056;2023-03-31T13:35:39;9.90;99.90
34147;DHT22;20423;49.448;9.056;2023-03-31T13:38:31;10.00;99.90
34147;DHT22;20423;49.448;9.056;2023-03-31T13:42:01;10.10;99.90
34147;DHT22;20423;49.448;9.056;2023-03-31T13:52:43;10.60;99.90
34147;DHT22;20423;49.448;9.056;2023-03-31T14:03:44;10.40;99.90
34147;DHT22;20423;49.448;9.056;2023-03-31T14:06:43;10.50;99.90
34147;DHT22;20423;49.448;9.056;2023-03-31T14:09:21;10.70;99.90
34147;DHT22;20423;49.448;9.056;2023-03-31T14:11:48;10.90;99.90
34147;DHT22;20423;49.448;9.056;2023-03-31T14:14:16;10.90;99.90
34147;DHT22;20423;49.448;9.056;2023-03-31T14:16:55;11.10;99.90
34147;DHT22;20423;49.448;9.056;2023-03-31T14:19:43;11.20;99.90
34147;DHT22;20423;49.448;9.056;2023-03-31T14:25:17;11.20;99.90
34147;DHT22;20423;49.448;9.056;2023-03-31T14:28:09;11.30;99.90
34147;DHT22;20423;49.448;9.056;2023-03-31T14:39:43;10.50;99.90
34147;DHT22;20423;49.448;9.056;2023-03-31T14:42:18;10.30;99.90
34147;DHT22;20423;49.448;9.056;2023-03-31T14:44:46;10.00;99.90
34147;DHT22;20423;49.448;9.056;2023-03-31T14:47:35;9.70;99.90
34147;DHT22;20423;49.448;9.056;2023-03-31T14:50:16;9.30;99.90
34147;DHT22;20423;49.448;9.056;2023-03-31T14:52:50;8.90;99.90
34147;DHT22;20423;49.448;9.056;2023-03-31T14:55:20;8.80;99.90
34147;DHT22;20423;49.448;9.056;2023-03-31T14:57:48;8.60;99.90
34147;DHT22;20423;49.448;9.056;2023-03-31T15:00:26;8.40;99.90
34147;DHT22;20423;49.448;9.056;2023-03-31T15:06:54;7.60;99.90
34147;DHT22;20423;49.448;9.056;2023-03-31T15:09:29;7.40;99.90
34147;DHT22;20423;49.448;9.056;2023-03-31T15:12:07;7.40;99.90
34147;DHT22;20423;49.448;9.056;2023-03-31T15:14:57;7.50;99.90
34147;DHT22;20423;49.448;9.056;2023-03-31T15:17:34;7.80;99.90
34147;DHT22;20423;49.448;9.056;2023-03-31T15:22:49;8.80;99.90
34147;DHT22;20423;49.448;9.056;2023-03-31T15:25:15;8.90;99.90
34147;DHT22;20423;49.448;9.056;2023-03-31T15:27:48;8.90;99.90
34147;DHT22;20423;49.448;9.056;2023-03-31T15:34:21;8.90;99.90
34147;DHT22;20423;49.448;9.056;2023-03-31T15:40:40;8.70;99.90
34147;DHT22;20423;49.448;9.056;2023-03-31T15:43:13;8.50;99.90
34147;DHT22;20423;49.448;9.056;2023-03-31T15:45:52;8.40;99.90
34147;DHT22;20423;49.448;9.056;2023-03-31T15:48:33;8.30;99.90
34147;DHT22;20423;49.448;9.056;2023-03-31T15:51:17;8.30;99.90
34147;DHT22;20423;49.448;9.056;2023-03-31T15:53:46;8.20;99.90
34147;DHT22;20423;49.448;9.056;2023-03-31T15:56:42;8.10;99.90
34147;DHT22;20423;49.448;9.056;2023-03-31T15:59:28;8.10;99.90
34147;DHT22;20423;49.448;9.056;2023-03-31T16:01:55;8.00;99.90
34147;DHT22;20423;49.448;9.056;2023-03-31T16:04:22;8.10;99.90
34147;DHT22;20423;49.448;9.056;2023-03-31T16:06:56;8.10;99.90
34147;DHT22;20423;49.448;9.056;2023-03-31T16:09:27;8.10;99.90
34147;DHT22;20423;49.448;9.056;2023-03-31T16:11:59;8.00;99.90
34147;DHT22;20423;49.448;9.056;2023-03-31T16:14:42;8.00;99.90
34147;DHT22;20423;49.448;9.056;2023-03-31T16:17:44;8.00;99.90
34147;DHT22;20423;49.448;9.056;2023-03-31T16:20:30;7.90;99.90
34147;DHT22;20423;49.448;9.056;2023-03-31T16:22:57;7.90;99.90
34147;DHT22;20423;49.448;9.056;2023-03-31T16:25:25;7.90;99.90
34147;DHT22;20423;49.448;9.056;2023-03-31T16:27:55;7.90;99.90
34147;DHT22;20423;49.448;9.056;2023-03-31T16:30:38;7.90;99.90
34147;DHT22;20423;49.448;9.056;2023-03-31T16:33:08;7.90;99.90
34147;DHT22;20423;49.448;9.056;2023-03-31T16:35:46;7.90;99.90
34147;DHT22;20423;49.448;9.056;2023-03-31T16:38:19;7.90;99.90
34147;DHT22;20423;49.448;9.056;2023-03-31T16:40:47;8.00;99.90
34147;DHT22;20423;49.448;9.056;2023-03-31T16:45:53;7.90;99.90
34147;DHT22;20423;49.448;9.056;2023-03-31T16:48:20;7.90;99.90
34147;DHT22;20423;49.448;9.056;2023-03-31T16:50:49;7.90;99.90
34147;DHT22;20423;49.448;9.056;2023-03-31T16:53:18;7.90;99.90
34147;DHT22;20423;49.448;9.056;2023-03-31T16:55:45;7.90;99.90
34147;DHT22;20423;49.448;9.056;2023-03-31T16:58:12;7.90;99.90
34147;DHT22;20423;49.448;9.056;2023-03-31T17:00:37;7.90;99.90
34147;DHT22;20423;49.448;9.056;2023-03-31T17:03:05;7.90;99.90
34147;DHT22;20423;49.448;9.056;2023-03-31T17:09:19;8.00;99.90
34147;DHT22;20423;49.448;9.056;2023-03-31T17:11:45;8.00;99.90
34147;DHT22;20423;49.448;9.056;2023-03-31T17:14:12;7.90;99.90
34147;DHT22;20423;49.448;9.056;2023-03-31T17:16:38;7.90;99.90
34147;DHT22;20423;49.448;9.056;2023-03-31T17:19:04;7.90;99.90
34147;DHT22;20423;49.448;9.056;2023-03-31T17:21:29;7.90;99.90
34147;DHT22;20423;49.448;9.056;2023-03-31T17:23:55;7.90;99.90
34147;DHT22;20423;49.448;9.056;2023-03-31T17:26:21;7.90;99.90
34147;DHT22;20423;49.448;9.056;2023-03-31T17:28:47;7.80;99.90
34147;DHT22;20423;49.448;9.056;2023-03-31T17:31:46;7.80;99.90
34147;DHT22;20423;49.448;9.056;2023-03-31T17:34:12;7.70;99.90
34147;DHT22;20423;49.448;9.056;2023-03-31T17:36:41;7.70;99.90
34147;DHT22;20423;49.448;9.056;2023-03-31T17:39:08;7.70;99.90
34147;DHT22;20423;49.448;9.056;2023-03-31T17:41:35;7.50;99.90
34147;DHT22;20423;49.448;9.056;2023-03-31T17:44:01;7.50;99.90
34147;DHT22;20423;49.448;9.056;2023-03-31T17:46:27;7.40;99.90
34147;DHT22;20423;49.448;9.056;2023-03-31T17:48:53;7.30;99.90
34147;DHT22;20423;49.448;9.056;2023-03-31T17:51:20;7.20;99.90
34147;DHT22;20423;49.448;9.056;2023-03-31T17:53:47;7.20;99.90
34147;DHT22;20423;49.448;9.056;2023-03-31T17:56:14;7.20;99.90
34147;DHT22;20423;49.448;9.056;2023-03-31T17:58:40;7.20;99.90
34147;DHT22;20423;49.448;9.056;2023-03-31T18:01:07;7.10;99.90
34147;DHT22;20423;49.448;9.056;2023-03-31T18:03:33;7.10;99.90
34147;DHT22;20423;49.448;9.056;2023-03-31T18:06:10;7.10;99.90
34147;DHT22;20423;49.448;9.056;2023-03-31T18:08:37;7.10;99.90
34147;DHT22;20423;49.448;9.056;2023-03-31T18:11:04;7.00;99.90
34147;DHT22;20423;49.448;9.056;2023-03-31T18:13:32;7.00;99.90
34147;DHT22;20423;49.448;9.056;2023-03-31T18:15:57;6.90;99.90
34147;DHT22;20423;49.448;9.056;2023-03-31T18:18:23;6.90;99.90
34147;DHT22;20423;49.448;9.056;2023-03-31T18:24:11;6.90;99.90
34147;DHT22;20423;49.448;9.056;2023-03-31T18:26:38;6.90;99.90
34147;DHT22;20423;49.448;9.056;2023-03-31T18:29:04;6.90;99.90
34147;DHT22;20423;49.448;9.056;2023-03-31T18:31:30;6.80;99.90
34147;DHT22;20423;49.448;9.056;2023-03-31T18:33:56;6.80;99.90
34147;DHT22;20423;49.448;9.056;2023-03-31T18:36:22;6.80;99.90
34147;DHT22;20423;49.448;9.056;2023-03-31T18:38:48;6.80;99.90
34147;DHT22;20423;49.448;9.056;2023-03-31T18:41:16;6.70;99.90
34147;DHT22;20423;49.448;9.056;2023-03-31T18:43:44;6.70;99.90
34147;DHT22;20423;49.448;9.056;2023-03-31T18:46:12;6.60;99.90
34147;DHT22;20423;49.448;9.056;2023-03-31T18:48:38;6.60;99.90
34147;DHT22;20423;49.448;9.056;2023-03-31T18:51:04;6.50;99.90
34147;DHT22;20423;49.448;9.056;2023-03-31T18:53:30;6.50;99.90
34147;DHT22;20423;49.448;9.056;2023-03-31T18:55:57;6.40;99.90
34147;DHT22;20423;49.448;9.056;2023-03-31T18:58:27;6.40;99.90
34147;DHT22;20423;49.448;9.056;2023-03-31T19:00:54;6.40;99.90
34147;DHT22;20423;49.448;9.056;2023-03-31T19:03:20;6.40;99.90
34147;DHT22;20423;49.448;9.056;2023-03-31T19:05:46;6.40;99.90
34147;DHT22;20423;49.448;9.056;2023-03-31T19:08:12;6.40;99.90
34147;DHT22;20423;49.448;9.056;2023-03-31T19:10:37;6.40;99.90
34147;DHT22;20423;49.448;9.056;2023-03-31T19:13:03;6.40;99.90
34147;DHT22;20423;49.448;9.056;2023-03-31T19:15:29;6.40;99.90
34147;DHT22;20423;49.448;9.056;2023-03-31T19:17:55;6.40;99.90